KFDR/FDR METAR and TAF weather

Enter ICAO airport designator
Station Type Date Time Source
KFDR METAR 2022/11/26 09:53 UTC NOAA

KFDR 260953Z AUTO 06008KT 3SM BR OVC002 07/06 A3002 RMK AO2 SLP162 T00720056


Station Type Date Time Source
KFDR Decoded METAR 2022/11/26 09:53 UTC NOAA

FREDERICK MUNICIPAL AIRPORT, OK, United States (KFDR) 34-21N 98-59W 377M
Nov 26, 2022 - 04:53 AM EST / 2022.11.26 0953 UTC
Wind: from the ENE (060 degrees) at 9 MPH (8 KT):0
Visibility: 3 mile(s):0
Sky conditions: overcast
Weather: mist
Temperature: 45.0 F (7.2 C)
Dew Point: 42.1 F (5.6 C)
Relative Humidity: 89%
Pressure (altimeter): 30.02 in. Hg (1016 hPa)
ob: KFDR 260953Z AUTO 06008KT 3SM BR OVC002 07/06 A3002 RMK AO2 SLP162 T00720056
cycle: 10

Station Type Date Time Source
KFDR TAF UTC NOAA

Error!

Example: see airport list